Terminal Aerodrome Forecast
Issued by NWS

Home | Current Version | Previous Version | Graphics & Text | Print | Product List | Glossary On
Versions: 1 2 3 4 5 6 7 8 9 10 11 12 13 14 15 16 17 18
000
FTUS42 KMHX 271741
TAFOAJ
TAF
KOAJ 271741Z 2718/2818 19012G20KT P6SM -RA VCTS BKN035CB
     FM280200 20010KT P6SM VCTS BKN030CB
     FM280900 27007KT P6SM BKN050
      AMD LTD TO CLD VIS AND WIND=

USA.gov is the U.S. government's official web portal to all federal, state and local government web resources and services.